Terminal Aerodrome Forecast
Issued by NWS

Home | Current Version | Previous Version | Text Only | Print | Product List | Glossary Off
Versions: 1 2 3 4 5 6 7 8 9 10 11 12

060
FTUS44 KLZK 221723
TAFLIT
TAF
KLIT 221723Z 2218/2318 19005KT P6SM SCT250
     FM230600 18004KT P6SM FEW250
     FM231000 00000KT 6SM BR FEW250
     FM231400 17005KT P6SM SCT250=

USA.gov is the U.S. government's official web portal to all federal, state and local government web resources and services.